アリススプリングス の空港の天気 - METARとTAF

アリス・スプリングス空港 ( YBAS / ASP ) - オーストラリア ノーザンテリトリーアリススプリングス
飛行場実況気象(Metar)
観測時間06/18 17:00 ACST (06/18 07:30 UTC)
風向・風速東 6m/s
視程10km以上
天気現象
なし
気温15℃
湿度20%
気圧1024hPa
METARYBAS 180730Z AUTO 09011KT 9999 // NCD 15/M08 Q1024 RF00.0/000.0
過去の天気等 Google飛行場航空写真 Wunderground天気予報

過去48時間のMETAR

飛行場予報(TAF)
発表時間: 6/18 14:42 ACST (6/18 05:12 UTC)
予報対象時間: 18日15時 ACST ~ 19日15時 ACST
風向・風速東 7m/s
視程10km以上
なし
18日17時 ACST から
風向・風速東北東 3m/s
視程10km以上
なし
19日0時 ACST から
風向・風速西北西 3m/s
視程10km以上
なし
19日9時 ACST から
風向・風速東北東 4m/s
視程10km以上
なし
TAF YBAS 180512Z 1806/1906 09014KT CAVOK
FM180800 07006KT CAVOK
FM181500 30005KT CAVOK
FM190000 06008KT CAVOK